sensor_id;sensor_type;location;lat;lon;timestamp;temperature;humidity
21338;DHT22;72379;50.880;4.350;2023-11-22T00:00:55;7.20;99.90
21338;DHT22;72379;50.880;4.350;2023-11-22T00:03:21;7.30;99.90
21338;DHT22;72379;50.880;4.350;2023-11-22T00:08:15;7.40;99.90
21338;DHT22;72379;50.880;4.350;2023-11-22T00:18:01;7.20;99.90
21338;DHT22;72379;50.880;4.350;2023-11-22T00:20:29;7.20;99.90
21338;DHT22;72379;50.880;4.350;2023-11-22T00:22:56;7.00;99.90
21338;DHT22;72379;50.880;4.350;2023-11-22T00:25:21;7.00;99.90
21338;DHT22;72379;50.880;4.350;2023-11-22T00:30:14;7.00;99.90
21338;DHT22;72379;50.880;4.350;2023-11-22T00:32:40;6.90;99.90
21338;DHT22;72379;50.880;4.350;2023-11-22T00:35:07;7.00;99.90
21338;DHT22;72379;50.880;4.350;2023-11-22T00:37:35;7.20;99.90
21338;DHT22;72379;50.880;4.350;2023-11-22T00:42:38;7.30;99.90
21338;DHT22;72379;50.880;4.350;2023-11-22T00:45:06;7.30;99.90
21338;DHT22;72379;50.880;4.350;2023-11-22T00:47:32;7.40;99.90
21338;DHT22;72379;50.880;4.350;2023-11-22T00:52:25;7.20;99.90
21338;DHT22;72379;50.880;4.350;2023-11-22T00:54:51;7.30;99.90
21338;DHT22;72379;50.880;4.350;2023-11-22T00:57:17;7.10;99.90
21338;DHT22;72379;50.880;4.350;2023-11-22T00:59:43;7.10;99.90
21338;DHT22;72379;50.880;4.350;2023-11-22T01:02:09;7.20;99.90
21338;DHT22;72379;50.880;4.350;2023-11-22T01:07:03;7.00;99.90
21338;DHT22;72379;50.880;4.350;2023-11-22T01:09:32;6.80;99.90
21338;DHT22;72379;50.880;4.350;2023-11-22T01:11:59;6.70;99.90
21338;DHT22;72379;50.880;4.350;2023-11-22T01:14:27;6.40;99.90
21338;DHT22;72379;50.880;4.350;2023-11-22T01:16:53;6.70;99.90
21338;DHT22;72379;50.880;4.350;2023-11-22T01:21:48;6.90;99.90
21338;DHT22;72379;50.880;4.350;2023-11-22T01:24:14;6.70;99.90
21338;DHT22;72379;50.880;4.350;2023-11-22T01:26:39;6.90;99.90
21338;DHT22;72379;50.880;4.350;2023-11-22T01:29:06;6.90;99.90
21338;DHT22;72379;50.880;4.350;2023-11-22T01:31:31;7.00;99.90
21338;DHT22;72379;50.880;4.350;2023-11-22T01:33:58;6.90;99.90
21338;DHT22;72379;50.880;4.350;2023-11-22T01:36:24;7.20;99.90
21338;DHT22;72379;50.880;4.350;2023-11-22T01:38:51;7.20;99.90
21338;DHT22;72379;50.880;4.350;2023-11-22T01:43:45;7.20;99.90
21338;DHT22;72379;50.880;4.350;2023-11-22T01:46:24;7.20;99.90
21338;DHT22;72379;50.880;4.350;2023-11-22T01:48:51;7.20;99.90
21338;DHT22;72379;50.880;4.350;2023-11-22T01:51:24;7.20;99.90
21338;DHT22;72379;50.880;4.350;2023-11-22T01:53:54;7.40;99.90
21338;DHT22;72379;50.880;4.350;2023-11-22T01:56:21;7.50;99.90
21338;DHT22;72379;50.880;4.350;2023-11-22T01:58:49;7.20;99.90
21338;DHT22;72379;50.880;4.350;2023-11-22T02:01:18;7.10;99.90
21338;DHT22;72379;50.880;4.350;2023-11-22T02:03:45;6.80;99.90
21338;DHT22;72379;50.880;4.350;2023-11-22T02:06:13;6.90;99.90
21338;DHT22;72379;50.880;4.350;2023-11-22T02:11:09;7.20;99.90
21338;DHT22;72379;50.880;4.350;2023-11-22T02:13:35;6.50;99.90
21338;DHT22;72379;50.880;4.350;2023-11-22T02:16:12;6.60;99.90
21338;DHT22;72379;50.880;4.350;2023-11-22T02:18:37;6.40;99.90
21338;DHT22;72379;50.880;4.350;2023-11-22T02:23:29;6.60;99.90
21338;DHT22;72379;50.880;4.350;2023-11-22T02:25:55;6.60;99.90
21338;DHT22;72379;50.880;4.350;2023-11-22T02:28:21;6.70;99.90
21338;DHT22;72379;50.880;4.350;2023-11-22T02:30:54;6.50;99.90
21338;DHT22;72379;50.880;4.350;2023-11-22T02:38:14;7.10;99.90
21338;DHT22;72379;50.880;4.350;2023-11-22T02:40:40;6.60;99.90
21338;DHT22;72379;50.880;4.350;2023-11-22T02:43:06;6.90;99.90
21338;DHT22;72379;50.880;4.350;2023-11-22T02:48:13;7.10;99.90
21338;DHT22;72379;50.880;4.350;2023-11-22T02:50:39;7.10;99.90
21338;DHT22;72379;50.880;4.350;2023-11-22T02:53:05;7.20;99.90
21338;DHT22;72379;50.880;4.350;2023-11-22T02:55:37;7.40;99.90
21338;DHT22;72379;50.880;4.350;2023-11-22T02:58:02;7.40;99.90
21338;DHT22;72379;50.880;4.350;2023-11-22T03:03:01;7.30;99.90
21338;DHT22;72379;50.880;4.350;2023-11-22T03:05:35;7.20;99.90
21338;DHT22;72379;50.880;4.350;2023-11-22T03:10:33;7.30;99.90
21338;DHT22;72379;50.880;4.350;2023-11-22T03:13:12;7.30;99.90
21338;DHT22;72379;50.880;4.350;2023-11-22T03:18:04;7.20;99.90
21338;DHT22;72379;50.880;4.350;2023-11-22T03:20:32;6.80;99.90
21338;DHT22;72379;50.880;4.350;2023-11-22T03:22:58;7.10;99.90
21338;DHT22;72379;50.880;4.350;2023-11-22T03:25:27;7.00;99.90
21338;DHT22;72379;50.880;4.350;2023-11-22T03:27:54;6.80;99.90
21338;DHT22;72379;50.880;4.350;2023-11-22T03:30:20;7.00;99.90
21338;DHT22;72379;50.880;4.350;2023-11-22T03:32:46;7.00;99.90
21338;DHT22;72379;50.880;4.350;2023-11-22T03:35:12;6.70;99.90
21338;DHT22;72379;50.880;4.350;2023-11-22T03:37:38;6.70;99.90
21338;DHT22;72379;50.880;4.350;2023-11-22T03:40:04;6.90;99.90
21338;DHT22;72379;50.880;4.350;2023-11-22T03:45:02;7.10;99.90
21338;DHT22;72379;50.880;4.350;2023-11-22T03:47:27;7.50;99.90
21338;DHT22;72379;50.880;4.350;2023-11-22T03:49:53;7.40;99.90
21338;DHT22;72379;50.880;4.350;2023-11-22T03:52:25;6.80;99.90
21338;DHT22;72379;50.880;4.350;2023-11-22T03:54:52;7.20;99.90
21338;DHT22;72379;50.880;4.350;2023-11-22T03:57:18;7.30;99.90
21338;DHT22;72379;50.880;4.350;2023-11-22T04:02:09;6.70;99.90
21338;DHT22;72379;50.880;4.350;2023-11-22T04:04:36;6.80;99.90
21338;DHT22;72379;50.880;4.350;2023-11-22T04:24:06;7.30;99.90
21338;DHT22;72379;50.880;4.350;2023-11-22T04:28:57;7.10;99.90
21338;DHT22;72379;50.880;4.350;2023-11-22T04:31:24;7.20;99.90
21338;DHT22;72379;50.880;4.350;2023-11-22T04:36:16;7.30;99.90
21338;DHT22;72379;50.880;4.350;2023-11-22T04:48:26;6.80;99.90
21338;DHT22;72379;50.880;4.350;2023-11-22T04:50:52;6.90;99.90
21338;DHT22;72379;50.880;4.350;2023-11-22T04:53:19;7.20;99.90
21338;DHT22;72379;50.880;4.350;2023-11-22T04:55:44;7.30;99.90
21338;DHT22;72379;50.880;4.350;2023-11-22T04:58:11;7.10;99.90
21338;DHT22;72379;50.880;4.350;2023-11-22T05:00:36;7.10;99.90
21338;DHT22;72379;50.880;4.350;2023-11-22T05:03:08;6.90;99.90
21338;DHT22;72379;50.880;4.350;2023-11-22T05:05:41;6.80;99.90
21338;DHT22;72379;50.880;4.350;2023-11-22T05:08:06;6.80;99.90
21338;DHT22;72379;50.880;4.350;2023-11-22T05:10:32;7.00;99.90
21338;DHT22;72379;50.880;4.350;2023-11-22T05:15:27;7.10;99.90
21338;DHT22;72379;50.880;4.350;2023-11-22T05:17:52;7.20;99.90
21338;DHT22;72379;50.880;4.350;2023-11-22T05:27:36;7.10;99.90
21338;DHT22;72379;50.880;4.350;2023-11-22T05:34:56;7.00;99.90
21338;DHT22;72379;50.880;4.350;2023-11-22T05:39:48;7.30;99.90
21338;DHT22;72379;50.880;4.350;2023-11-22T05:47:06;7.10;99.90
21338;DHT22;72379;50.880;4.350;2023-11-22T05:49:33;7.10;99.90
21338;DHT22;72379;50.880;4.350;2023-11-22T05:54:25;7.00;99.90
21338;DHT22;72379;50.880;4.350;2023-11-22T05:56:50;7.00;99.90
21338;DHT22;72379;50.880;4.350;2023-11-22T06:06:35;7.90;99.90
21338;DHT22;72379;50.880;4.350;2023-11-22T06:09:02;7.30;99.90
21338;DHT22;72379;50.880;4.350;2023-11-22T06:11:27;7.40;99.90
21338;DHT22;72379;50.880;4.350;2023-11-22T06:16:19;7.30;99.90
21338;DHT22;72379;50.880;4.350;2023-11-22T06:23:37;7.70;99.90
21338;DHT22;72379;50.880;4.350;2023-11-22T06:28:30;7.40;99.90
21338;DHT22;72379;50.880;4.350;2023-11-22T06:40:42;7.40;99.90
21338;DHT22;72379;50.880;4.350;2023-11-22T06:43:07;7.40;99.90
21338;DHT22;72379;50.880;4.350;2023-11-22T06:45:33;7.40;99.90
21338;DHT22;72379;50.880;4.350;2023-11-22T06:55:18;7.50;99.90
21338;DHT22;72379;50.880;4.350;2023-11-22T06:57:44;7.50;99.90
21338;DHT22;72379;50.880;4.350;2023-11-22T07:05:04;7.40;99.90
21338;DHT22;72379;50.880;4.350;2023-11-22T07:07:37;7.40;99.90
21338;DHT22;72379;50.880;4.350;2023-11-22T07:10:03;7.50;99.90
21338;DHT22;72379;50.880;4.350;2023-11-22T07:12:33;7.30;99.90
21338;DHT22;72379;50.880;4.350;2023-11-22T07:15:02;7.10;99.90
21338;DHT22;72379;50.880;4.350;2023-11-22T07:17:28;7.50;99.90
21338;DHT22;72379;50.880;4.350;2023-11-22T07:19:54;7.20;99.90
21338;DHT22;72379;50.880;4.350;2023-11-22T07:22:20;7.30;99.90
21338;DHT22;72379;50.880;4.350;2023-11-22T07:24:48;7.50;99.90
21338;DHT22;72379;50.880;4.350;2023-11-22T07:27:18;7.70;99.90
21338;DHT22;72379;50.880;4.350;2023-11-22T07:29:44;7.80;99.90
21338;DHT22;72379;50.880;4.350;2023-11-22T07:32:11;7.80;99.90
21338;DHT22;72379;50.880;4.350;2023-11-22T07:34:38;7.70;99.90
21338;DHT22;72379;50.880;4.350;2023-11-22T07:37:08;6.40;99.90
21338;DHT22;72379;50.880;4.350;2023-11-22T07:39:37;7.80;99.90
21338;DHT22;72379;50.880;4.350;2023-11-22T07:42:04;9.20;99.90
21338;DHT22;72379;50.880;4.350;2023-11-22T07:44:34;7.90;99.90
21338;DHT22;72379;50.880;4.350;2023-11-22T07:47:03;7.80;99.90
21338;DHT22;72379;50.880;4.350;2023-11-22T07:49:33;7.60;99.90
21338;DHT22;72379;50.880;4.350;2023-11-22T07:52:04;7.40;99.90
21338;DHT22;72379;50.880;4.350;2023-11-22T07:54:31;7.30;99.90
21338;DHT22;72379;50.880;4.350;2023-11-22T07:56:59;7.40;99.90
21338;DHT22;72379;50.880;4.350;2023-11-22T08:01:51;7.90;99.90
21338;DHT22;72379;50.880;4.350;2023-11-22T08:04:19;8.10;99.90
21338;DHT22;72379;50.880;4.350;2023-11-22T08:06:44;8.20;99.90
21338;DHT22;72379;50.880;4.350;2023-11-22T08:11:37;8.00;99.90
21338;DHT22;72379;50.880;4.350;2023-11-22T08:18:55;7.90;99.90
21338;DHT22;72379;50.880;4.350;2023-11-22T08:26:14;7.30;99.90
21338;DHT22;72379;50.880;4.350;2023-11-22T08:28:41;7.10;99.90
21338;DHT22;72379;50.880;4.350;2023-11-22T08:31:06;7.00;99.90
21338;DHT22;72379;50.880;4.350;2023-11-22T08:33:39;7.20;99.90
21338;DHT22;72379;50.880;4.350;2023-11-22T08:36:08;7.60;99.90
21338;DHT22;72379;50.880;4.350;2023-11-22T08:38:35;7.90;99.90
21338;DHT22;72379;50.880;4.350;2023-11-22T08:41:04;8.10;99.90
21338;DHT22;72379;50.880;4.350;2023-11-22T08:43:33;8.10;99.90
21338;DHT22;72379;50.880;4.350;2023-11-22T08:48:26;7.40;99.90
21338;DHT22;72379;50.880;4.350;2023-11-22T08:50:52;7.10;99.90
21338;DHT22;72379;50.880;4.350;2023-11-22T08:53:19;7.30;99.90
21338;DHT22;72379;50.880;4.350;2023-11-22T08:55:46;7.20;99.90
21338;DHT22;72379;50.880;4.350;2023-11-22T09:00:39;7.20;99.90
21338;DHT22;72379;50.880;4.350;2023-11-22T09:08:00;6.70;99.90
21338;DHT22;72379;50.880;4.350;2023-11-22T09:10:26;7.20;99.90
21338;DHT22;72379;50.880;4.350;2023-11-22T09:12:52;7.70;99.90
21338;DHT22;72379;50.880;4.350;2023-11-22T09:15:18;8.20;99.90
21338;DHT22;72379;50.880;4.350;2023-11-22T09:23:02;8.50;99.90
21338;DHT22;72379;50.880;4.350;2023-11-22T09:25:30;8.60;99.90
21338;DHT22;72379;50.880;4.350;2023-11-22T09:28:01;8.90;99.90
21338;DHT22;72379;50.880;4.350;2023-11-22T09:30:29;9.60;99.90
21338;DHT22;72379;50.880;4.350;2023-11-22T09:33:06;8.10;99.90
21338;DHT22;72379;50.880;4.350;2023-11-22T09:35:33;8.30;99.90
21338;DHT22;72379;50.880;4.350;2023-11-22T09:37:59;8.50;99.90
21338;DHT22;72379;50.880;4.350;2023-11-22T09:40:26;8.40;99.90
21338;DHT22;72379;50.880;4.350;2023-11-22T09:47:51;8.70;99.90
21338;DHT22;72379;50.880;4.350;2023-11-22T09:50:40;8.40;99.90
21338;DHT22;72379;50.880;4.350;2023-11-22T09:53:15;8.00;99.90
21338;DHT22;72379;50.880;4.350;2023-11-22T09:55:45;7.60;99.90
21338;DHT22;72379;50.880;4.350;2023-11-22T09:58:16;7.70;99.90
21338;DHT22;72379;50.880;4.350;2023-11-22T10:00:42;8.10;99.90
21338;DHT22;72379;50.880;4.350;2023-11-22T10:03:10;8.30;99.90
21338;DHT22;72379;50.880;4.350;2023-11-22T10:05:39;8.30;99.90
21338;DHT22;72379;50.880;4.350;2023-11-22T10:08:08;8.60;99.90
21338;DHT22;72379;50.880;4.350;2023-11-22T10:10:36;8.70;99.90
21338;DHT22;72379;50.880;4.350;2023-11-22T10:13:03;8.40;99.90
21338;DHT22;72379;50.880;4.350;2023-11-22T10:15:29;8.50;99.90
21338;DHT22;72379;50.880;4.350;2023-11-22T10:17:57;8.30;99.90
21338;DHT22;72379;50.880;4.350;2023-11-22T10:20:42;8.40;99.90
21338;DHT22;72379;50.880;4.350;2023-11-22T10:23:13;8.50;99.90
21338;DHT22;72379;50.880;4.350;2023-11-22T10:25:47;8.50;99.90
21338;DHT22;72379;50.880;4.350;2023-11-22T10:28:15;8.40;99.90
21338;DHT22;72379;50.880;4.350;2023-11-22T10:30:43;8.30;99.90
21338;DHT22;72379;50.880;4.350;2023-11-22T10:33:10;8.70;99.90
21338;DHT22;72379;50.880;4.350;2023-11-22T10:35:49;8.80;99.90
21338;DHT22;72379;50.880;4.350;2023-11-22T10:38:18;9.30;99.90
21338;DHT22;72379;50.880;4.350;2023-11-22T10:40:45;9.60;99.90
21338;DHT22;72379;50.880;4.350;2023-11-22T10:43:14;9.80;99.90
21338;DHT22;72379;50.880;4.350;2023-11-22T10:45:42;9.80;99.90
21338;DHT22;72379;50.880;4.350;2023-11-22T10:48:15;9.90;99.90
21338;DHT22;72379;50.880;4.350;2023-11-22T10:53:16;10.00;99.40
21338;DHT22;72379;50.880;4.350;2023-11-22T10:55:45;10.00;99.90
21338;DHT22;72379;50.880;4.350;2023-11-22T10:58:15;9.90;99.90
21338;DHT22;72379;50.880;4.350;2023-11-22T11:00:42;10.10;99.90
21338;DHT22;72379;50.880;4.350;2023-11-22T11:03:14;9.80;97.00
21338;DHT22;72379;50.880;4.350;2023-11-22T11:05:49;9.60;99.90
21338;DHT22;72379;50.880;4.350;2023-11-22T11:10:46;9.80;99.90
21338;DHT22;72379;50.880;4.350;2023-11-22T11:13:11;10.30;99.90
21338;DHT22;72379;50.880;4.350;2023-11-22T11:15:40;10.50;94.40
21338;DHT22;72379;50.880;4.350;2023-11-22T11:18:13;10.70;80.40
21338;DHT22;72379;50.880;4.350;2023-11-22T11:23:19;10.60;92.60
21338;DHT22;72379;50.880;4.350;2023-11-22T11:30:41;8.70;99.90
21338;DHT22;72379;50.880;4.350;2023-11-22T11:33:18;8.60;99.90
21338;DHT22;72379;50.880;4.350;2023-11-22T11:35:48;9.00;99.90
21338;DHT22;72379;50.880;4.350;2023-11-22T11:38:16;9.80;96.60
21338;DHT22;72379;50.880;4.350;2023-11-22T11:40:43;9.70;92.10
21338;DHT22;72379;50.880;4.350;2023-11-22T11:43:11;9.60;92.00
21338;DHT22;72379;50.880;4.350;2023-11-22T11:45:39;9.80;86.80
21338;DHT22;72379;50.880;4.350;2023-11-22T11:48:05;9.90;86.20
21338;DHT22;72379;50.880;4.350;2023-11-22T11:50:32;9.90;93.50
21338;DHT22;72379;50.880;4.350;2023-11-22T11:55:25;10.30;86.20
21338;DHT22;72379;50.880;4.350;2023-11-22T11:57:54;12.10;58.50
21338;DHT22;72379;50.880;4.350;2023-11-22T12:02:49;10.50;77.80
21338;DHT22;72379;50.880;4.350;2023-11-22T12:12:34;10.60;42.10
21338;DHT22;72379;50.880;4.350;2023-11-22T12:19:53;10.20;61.00
21338;DHT22;72379;50.880;4.350;2023-11-22T12:22:33;9.80;75.50
21338;DHT22;72379;50.880;4.350;2023-11-22T12:24:59;9.60;72.50
21338;DHT22;72379;50.880;4.350;2023-11-22T12:32:25;10.30;71.40
21338;DHT22;72379;50.880;4.350;2023-11-22T12:37:21;9.90;47.20
21338;DHT22;72379;50.880;4.350;2023-11-22T12:42:14;9.80;81.50
21338;DHT22;72379;50.880;4.350;2023-11-22T12:44:52;9.60;78.10
21338;DHT22;72379;50.880;4.350;2023-11-22T12:47:34;10.10;71.10
21338;DHT22;72379;50.880;4.350;2023-11-22T12:50:03;10.30;48.40
21338;DHT22;72379;50.880;4.350;2023-11-22T12:57:29;10.80;68.80
21338;DHT22;72379;50.880;4.350;2023-11-22T12:59:55;11.50;60.20
21338;DHT22;72379;50.880;4.350;2023-11-22T13:02:21;11.40;37.30
21338;DHT22;72379;50.880;4.350;2023-11-22T13:09:38;10.80;65.30
21338;DHT22;72379;50.880;4.350;2023-11-22T13:12:05;10.90;62.60
21338;DHT22;72379;50.880;4.350;2023-11-22T13:17:03;11.10;33.80
21338;DHT22;72379;50.880;4.350;2023-11-22T13:19:33;11.60;29.10
21338;DHT22;72379;50.880;4.350;2023-11-22T13:22:00;12.10;28.00
21338;DHT22;72379;50.880;4.350;2023-11-22T13:24:26;12.20;27.80
21338;DHT22;72379;50.880;4.350;2023-11-22T13:41:30;10.20;79.40
21338;DHT22;72379;50.880;4.350;2023-11-22T13:43:56;10.80;82.60
21338;DHT22;72379;50.880;4.350;2023-11-22T13:46:21;10.50;69.70
21338;DHT22;72379;50.880;4.350;2023-11-22T13:53:39;9.80;97.80
21338;DHT22;72379;50.880;4.350;2023-11-22T13:56:08;9.40;97.60
21338;DHT22;72379;50.880;4.350;2023-11-22T13:58:34;9.50;98.60
21338;DHT22;72379;50.880;4.350;2023-11-22T14:01:01;9.60;99.90
21338;DHT22;72379;50.880;4.350;2023-11-22T14:08:19;10.10;80.30
21338;DHT22;72379;50.880;4.350;2023-11-22T14:10:45;9.90;88.00
21338;DHT22;72379;50.880;4.350;2023-11-22T14:13:12;9.60;80.80
21338;DHT22;72379;50.880;4.350;2023-11-22T14:15:37;8.70;76.30
21338;DHT22;72379;50.880;4.350;2023-11-22T14:18:03;10.00;93.30
21338;DHT22;72379;50.880;4.350;2023-11-22T14:22:56;9.70;91.80
21338;DHT22;72379;50.880;4.350;2023-11-22T14:25:23;9.80;92.00
21338;DHT22;72379;50.880;4.350;2023-11-22T14:27:49;10.00;86.60
21338;DHT22;72379;50.880;4.350;2023-11-22T14:30:20;10.10;66.90
21338;DHT22;72379;50.880;4.350;2023-11-22T14:40:06;9.80;88.20
21338;DHT22;72379;50.880;4.350;2023-11-22T14:42:45;9.90;90.00
21338;DHT22;72379;50.880;4.350;2023-11-22T14:47:39;9.90;85.00
21338;DHT22;72379;50.880;4.350;2023-11-22T14:50:07;9.60;75.50
21338;DHT22;72379;50.880;4.350;2023-11-22T14:52:36;9.70;92.80
21338;DHT22;72379;50.880;4.350;2023-11-22T14:55:02;9.70;94.80
21338;DHT22;72379;50.880;4.350;2023-11-22T14:57:30;9.70;95.10
21338;DHT22;72379;50.880;4.350;2023-11-22T14:59:55;9.70;95.90
21338;DHT22;72379;50.880;4.350;2023-11-22T15:02:22;9.60;99.90
21338;DHT22;72379;50.880;4.350;2023-11-22T15:04:48;9.70;99.90
21338;DHT22;72379;50.880;4.350;2023-11-22T15:09:40;9.60;99.90
21338;DHT22;72379;50.880;4.350;2023-11-22T15:12:06;9.80;90.40
21338;DHT22;72379;50.880;4.350;2023-11-22T15:14:33;10.00;90.20
21338;DHT22;72379;50.880;4.350;2023-11-22T15:16:59;9.60;91.70
21338;DHT22;72379;50.880;4.350;2023-11-22T15:19:31;9.70;92.40
21338;DHT22;72379;50.880;4.350;2023-11-22T15:21:57;9.50;95.20
21338;DHT22;72379;50.880;4.350;2023-11-22T15:26:52;9.30;95.70
21338;DHT22;72379;50.880;4.350;2023-11-22T15:29:17;9.40;93.90
21338;DHT22;72379;50.880;4.350;2023-11-22T15:31:43;9.30;99.90
21338;DHT22;72379;50.880;4.350;2023-11-22T15:39:02;9.20;99.90
21338;DHT22;72379;50.880;4.350;2023-11-22T15:41:28;9.20;99.90
21338;DHT22;72379;50.880;4.350;2023-11-22T15:53:42;9.30;93.90
21338;DHT22;72379;50.880;4.350;2023-11-22T15:58:44;9.70;86.30
21338;DHT22;72379;50.880;4.350;2023-11-22T16:03:37;9.00;99.90
21338;DHT22;72379;50.880;4.350;2023-11-22T16:06:03;9.00;99.90
21338;DHT22;72379;50.880;4.350;2023-11-22T16:08:30;8.30;99.90
21338;DHT22;72379;50.880;4.350;2023-11-22T16:10:57;9.60;92.40
21338;DHT22;72379;50.880;4.350;2023-11-22T16:13:23;9.70;98.40
21338;DHT22;72379;50.880;4.350;2023-11-22T16:15:48;9.70;97.20
21338;DHT22;72379;50.880;4.350;2023-11-22T16:25:36;9.30;97.20
21338;DHT22;72379;50.880;4.350;2023-11-22T16:32:58;9.20;99.90
21338;DHT22;72379;50.880;4.350;2023-11-22T16:35:23;9.00;99.90
21338;DHT22;72379;50.880;4.350;2023-11-22T16:37:50;9.10;99.90
21338;DHT22;72379;50.880;4.350;2023-11-22T16:45:09;9.10;99.90
21338;DHT22;72379;50.880;4.350;2023-11-22T16:50:03;9.20;99.90
21338;DHT22;72379;50.880;4.350;2023-11-22T16:54:59;9.30;99.90
21338;DHT22;72379;50.880;4.350;2023-11-22T17:04:43;9.10;99.90
21338;DHT22;72379;50.880;4.350;2023-11-22T17:07:10;9.00;99.00
21338;DHT22;72379;50.880;4.350;2023-11-22T17:12:03;9.20;99.80
21338;DHT22;72379;50.880;4.350;2023-11-22T17:16:57;9.00;96.70
21338;DHT22;72379;50.880;4.350;2023-11-22T17:21:48;9.00;99.90
21338;DHT22;72379;50.880;4.350;2023-11-22T17:24:15;9.10;99.90
21338;DHT22;72379;50.880;4.350;2023-11-22T17:26:40;9.10;99.90
21338;DHT22;72379;50.880;4.350;2023-11-22T17:29:06;8.90;97.50
21338;DHT22;72379;50.880;4.350;2023-11-22T17:31:32;8.80;99.90
21338;DHT22;72379;50.880;4.350;2023-11-22T17:36:24;9.00;99.90
21338;DHT22;72379;50.880;4.350;2023-11-22T17:38:49;8.80;99.90
21338;DHT22;72379;50.880;4.350;2023-11-22T17:43:41;8.80;99.90
21338;DHT22;72379;50.880;4.350;2023-11-22T17:48:35;8.70;99.90
21338;DHT22;72379;50.880;4.350;2023-11-22T17:51:01;9.00;99.10
21338;DHT22;72379;50.880;4.350;2023-11-22T17:58:20;9.10;99.90
21338;DHT22;72379;50.880;4.350;2023-11-22T18:00:46;9.30;99.90
21338;DHT22;72379;50.880;4.350;2023-11-22T18:03:12;9.20;99.30
21338;DHT22;72379;50.880;4.350;2023-11-22T18:05:40;9.10;99.90
21338;DHT22;72379;50.880;4.350;2023-11-22T18:08:07;8.70;99.90
21338;DHT22;72379;50.880;4.350;2023-11-22T18:12:58;8.50;99.90
21338;DHT22;72379;50.880;4.350;2023-11-22T18:25:21;8.70;99.90
21338;DHT22;72379;50.880;4.350;2023-11-22T18:27:47;8.50;99.90
21338;DHT22;72379;50.880;4.350;2023-11-22T18:32:40;8.70;99.90
21338;DHT22;72379;50.880;4.350;2023-11-22T18:35:08;8.50;99.90
21338;DHT22;72379;50.880;4.350;2023-11-22T18:37:35;8.30;99.90
21338;DHT22;72379;50.880;4.350;2023-11-22T18:40:01;8.70;99.90
21338;DHT22;72379;50.880;4.350;2023-11-22T18:44:54;8.60;99.90
21338;DHT22;72379;50.880;4.350;2023-11-22T18:52:14;8.50;99.90
21338;DHT22;72379;50.880;4.350;2023-11-22T18:54:39;8.70;99.90
21338;DHT22;72379;50.880;4.350;2023-11-22T18:59:34;8.70;99.90
21338;DHT22;72379;50.880;4.350;2023-11-22T19:04:28;8.40;99.90
21338;DHT22;72379;50.880;4.350;2023-11-22T19:06:53;8.50;99.90
21338;DHT22;72379;50.880;4.350;2023-11-22T19:09:19;8.50;99.90
21338;DHT22;72379;50.880;4.350;2023-11-22T19:11:46;8.50;99.90
21338;DHT22;72379;50.880;4.350;2023-11-22T19:14:14;8.40;99.90
21338;DHT22;72379;50.880;4.350;2023-11-22T19:16:45;8.30;99.90
21338;DHT22;72379;50.880;4.350;2023-11-22T19:19:11;8.40;99.90
21338;DHT22;72379;50.880;4.350;2023-11-22T19:21:37;8.50;99.90
21338;DHT22;72379;50.880;4.350;2023-11-22T19:24:03;8.50;99.90
21338;DHT22;72379;50.880;4.350;2023-11-22T19:26:31;8.40;99.90
21338;DHT22;72379;50.880;4.350;2023-11-22T19:29:04;8.30;99.90
21338;DHT22;72379;50.880;4.350;2023-11-22T19:34:04;8.30;99.90
21338;DHT22;72379;50.880;4.350;2023-11-22T19:38:57;8.30;99.90
21338;DHT22;72379;50.880;4.350;2023-11-22T19:41:24;8.40;99.90
21338;DHT22;72379;50.880;4.350;2023-11-22T19:43:50;8.30;99.90
21338;DHT22;72379;50.880;4.350;2023-11-22T19:48:43;8.20;99.90
21338;DHT22;72379;50.880;4.350;2023-11-22T19:51:14;8.20;99.90
21338;DHT22;72379;50.880;4.350;2023-11-22T19:53:40;8.10;99.90
21338;DHT22;72379;50.880;4.350;2023-11-22T19:56:09;8.10;99.90
21338;DHT22;72379;50.880;4.350;2023-11-22T19:58:35;8.10;99.90
21338;DHT22;72379;50.880;4.350;2023-11-22T20:01:01;8.50;99.90
21338;DHT22;72379;50.880;4.350;2023-11-22T20:05:53;9.00;99.90
21338;DHT22;72379;50.880;4.350;2023-11-22T20:08:20;8.30;99.90
21338;DHT22;72379;50.880;4.350;2023-11-22T20:10:48;8.20;99.90
21338;DHT22;72379;50.880;4.350;2023-11-22T20:13:15;8.30;99.90
21338;DHT22;72379;50.880;4.350;2023-11-22T20:15:42;8.20;99.90
21338;DHT22;72379;50.880;4.350;2023-11-22T20:20:36;7.90;99.90
21338;DHT22;72379;50.880;4.350;2023-11-22T20:23:02;7.90;99.90
21338;DHT22;72379;50.880;4.350;2023-11-22T20:25:29;8.20;99.90
21338;DHT22;72379;50.880;4.350;2023-11-22T20:40:06;8.40;99.90
21338;DHT22;72379;50.880;4.350;2023-11-22T20:42:33;8.40;99.90
21338;DHT22;72379;50.880;4.350;2023-11-22T20:54:43;8.60;99.90
21338;DHT22;72379;50.880;4.350;2023-11-22T21:02:02;8.40;99.90
21338;DHT22;72379;50.880;4.350;2023-11-22T21:04:28;8.60;99.90
21338;DHT22;72379;50.880;4.350;2023-11-22T21:11:46;8.70;99.90
21338;DHT22;72379;50.880;4.350;2023-11-22T21:14:12;8.80;99.90
21338;DHT22;72379;50.880;4.350;2023-11-22T21:16:44;8.80;99.90
21338;DHT22;72379;50.880;4.350;2023-11-22T21:19:11;8.60;99.90
21338;DHT22;72379;50.880;4.350;2023-11-22T21:21:38;9.10;99.90
21338;DHT22;72379;50.880;4.350;2023-11-22T21:24:06;9.00;99.90
21338;DHT22;72379;50.880;4.350;2023-11-22T21:28:58;8.80;99.90
21338;DHT22;72379;50.880;4.350;2023-11-22T21:33:50;8.80;99.90
21338;DHT22;72379;50.880;4.350;2023-11-22T21:36:17;8.90;99.90
21338;DHT22;72379;50.880;4.350;2023-11-22T21:38:43;8.80;99.90
21338;DHT22;72379;50.880;4.350;2023-11-22T21:41:09;9.20;99.90
21338;DHT22;72379;50.880;4.350;2023-11-22T21:43:38;9.40;99.90
21338;DHT22;72379;50.880;4.350;2023-11-22T21:46:04;9.50;99.90
21338;DHT22;72379;50.880;4.350;2023-11-22T21:48:30;9.50;97.20
21338;DHT22;72379;50.880;4.350;2023-11-22T21:53:26;8.70;99.90
21338;DHT22;72379;50.880;4.350;2023-11-22T21:55:52;8.20;99.90
21338;DHT22;72379;50.880;4.350;2023-11-22T21:58:18;9.00;99.90
21338;DHT22;72379;50.880;4.350;2023-11-22T22:00:46;9.00;99.90
21338;DHT22;72379;50.880;4.350;2023-11-22T22:03:19;8.90;99.90
21338;DHT22;72379;50.880;4.350;2023-11-22T22:05:45;9.10;99.90
21338;DHT22;72379;50.880;4.350;2023-11-22T22:08:15;9.10;99.90
21338;DHT22;72379;50.880;4.350;2023-11-22T22:10:41;9.30;99.90
21338;DHT22;72379;50.880;4.350;2023-11-22T22:15:35;9.40;99.90
21338;DHT22;72379;50.880;4.350;2023-11-22T22:18:01;9.70;99.10
21338;DHT22;72379;50.880;4.350;2023-11-22T22:22:53;9.40;99.90
21338;DHT22;72379;50.880;4.350;2023-11-22T22:27:47;9.40;99.90
21338;DHT22;72379;50.880;4.350;2023-11-22T22:32:38;9.30;99.90
21338;DHT22;72379;50.880;4.350;2023-11-22T22:35:05;9.40;99.90
21338;DHT22;72379;50.880;4.350;2023-11-22T22:37:31;9.40;99.90
21338;DHT22;72379;50.880;4.350;2023-11-22T22:39:56;9.60;99.90
21338;DHT22;72379;50.880;4.350;2023-11-22T22:42:22;9.50;99.90
21338;DHT22;72379;50.880;4.350;2023-11-22T22:44:48;9.90;99.90
21338;DHT22;72379;50.880;4.350;2023-11-22T22:47:14;10.00;99.90
21338;DHT22;72379;50.880;4.350;2023-11-22T22:49:40;9.50;99.90
21338;DHT22;72379;50.880;4.350;2023-11-22T22:52:06;9.40;99.90
21338;DHT22;72379;50.880;4.350;2023-11-22T22:54:31;9.50;99.90